Belle Prairie, Nebraska
Current Conditions -  °F | °C
As of 4:55 PM on Thursday 20 Nov 2014 (Local Time) from KHJH Reporting Station
Clear Clear  
Wind Chill: 29°   Ceiling: Unl
Heat Index: 34°   Visibility: 10mi
Dew Point: 19°   Wind: 6mph
Humidity: 54%   Direction: 130°SE
Pressure: 30.14"   Gusts: NA
Location:  40.3936°N, 97.5387°W
Report Text: KHJH 202255Z AUTO 13005KT 10SM CLR 01/M07 A3014 RMK AO2 T00111073
Loading
Personal Weather Stations






























Interactive Weather Map New forecast layout! Learn more

10-Day Weather Forecast

Advertisements
Track Severe Weather on mobile